KPBI/PBI METAR and TAF weather

Enter ICAO airport designator
Station Type Date Time Source
KPBI METAR 2020/10/22 02:53 UTC NOAA

KPBI 220253Z 11015G20KT 10SM SCT020CB SCT043 BKN110 25/23 A3000 RMK AO2 RAE07 SLP160 CB NW MOV W P0000 60001 T02500228 51009 $


Station Type Date Time Source
KPBI Decoded METAR 2020/10/22 02:53 UTC NOAA

PALM BEACH INTERNATIONAL, FL, United States (KPBI) 26-41N 80-06W 6M
Oct 21, 2020 - 10:53 PM EDT / 2020.10.22 0253 UTC
Wind: from the ESE (110 degrees) at 17 MPH (15 KT) gusting to 23 MPH (20 KT):0
Visibility: 10 mile(s):0
Sky conditions: mostly cloudy
Weather: Cumulonimbus clouds observed
Precipitation last hour: A trace
Temperature: 77.0 F (25.0 C)
Dew Point: 73.0 F (22.8 C)
Relative Humidity: 87%
Pressure (altimeter): 30 in. Hg (1015 hPa)
Pressure tendency: 0.03 inches (0.9 hPa) higher than three hours ago
ob: KPBI 220253Z 11015G20KT 10SM SCT020CB SCT043 BKN110 25/23 A3000 RMK AO2 RAE07 SLP160 CB NW MOV W P0000 60001 T02500228 51009
cycle: 3

Station Type Date Time Source
KPBI TAF 2020/10/22 03:07 UTC NOAA

TAF
AMD KPBI 220302Z 2203/2224 11010G20KT P6SM VCSH SCT025 BKN100
FM220400 10015KT P6SM VCSH SCT025 BKN100
FM221300 09012KT P6SM VCSH SCT025 SCT100
FM221800 10015KT P6SM SCT025 BKN050

Example: see airport list